Sao Lourenco da Serra, Brazil
Current Conditions -  °F | °C
As of 5:00 PM on Sunday 21 Dec 2014 (Local Time) from SBSP Reporting Station
Scattered Clouds Scattered Clouds  
Wind Chill: 86°   Ceiling: Unl
Heat Index: 87°   Visibility: 6mi
Dew Point: 64°   Wind: 18mph
Humidity: 48%   Direction: 330°NNW
Pressure: 29.85"   Gusts: 30mph
Location:  23.86°S, 46.94°W
Report Text: SBSP 211900Z 33016G26KT 9999 SCT045 30/18 Q1011
Loading
Personal Weather Stations






























Interactive Weather Map New forecast layout! Learn more

10-Day Weather Forecast

Advertisements
Track Severe Weather on mobile